sensor_id;sensor_type;location;lat;lon;timestamp;pressure;altitude;pressure_sealevel;temperature;humidity
19594;BME280;9944;48.240;16.478;2022-10-31T00:03:26;100363.47;;;11.59;92.17
19594;BME280;9944;48.240;16.478;2022-10-31T00:07:31;100367.91;;;11.63;92.23
19594;BME280;9944;48.240;16.478;2022-10-31T00:11:34;100362.59;;;11.66;92.31
19594;BME280;9944;48.240;16.478;2022-10-31T00:15:38;100361.75;;;11.67;92.41
19594;BME280;9944;48.240;16.478;2022-10-31T00:19:42;100359.97;;;11.66;92.00
19594;BME280;9944;48.240;16.478;2022-10-31T00:23:46;100366.13;;;11.68;92.21
19594;BME280;9944;48.240;16.478;2022-10-31T00:27:49;100371.41;;;11.68;91.82
19594;BME280;9944;48.240;16.478;2022-10-31T00:31:52;100368.78;;;11.65;91.90
19594;BME280;9944;48.240;16.478;2022-10-31T00:35:56;100367.00;;;11.61;91.44
19594;BME280;9944;48.240;16.478;2022-10-31T00:40:02;100368.78;;;11.59;91.68
19594;BME280;9944;48.240;16.478;2022-10-31T00:44:06;100365.25;;;11.55;91.77
19594;BME280;9944;48.240;16.478;2022-10-31T00:48:09;100371.41;;;11.55;91.97
19594;BME280;9944;48.240;16.478;2022-10-31T00:52:12;100375.81;;;11.55;91.89
19594;BME280;9944;48.240;16.478;2022-10-31T00:56:18;100373.19;;;11.55;92.33
19594;BME280;9944;48.240;16.478;2022-10-31T01:00:22;100364.38;;;11.58;92.26
19594;BME280;9944;48.240;16.478;2022-10-31T01:04:25;100372.31;;;11.58;92.00
19594;BME280;9944;48.240;16.478;2022-10-31T01:08:29;100368.75;;;11.57;91.79
19594;BME280;9944;48.240;16.478;2022-10-31T01:12:37;100363.50;;;11.52;91.50
19594;BME280;9944;48.240;16.478;2022-10-31T01:16:40;100362.59;;;11.49;91.42
19594;BME280;9944;48.240;16.478;2022-10-31T01:20:43;100367.91;;;11.49;91.55
19594;BME280;9944;48.240;16.478;2022-10-31T01:24:46;100369.63;;;11.48;91.72
19594;BME280;9944;48.240;16.478;2022-10-31T01:28:52;100356.41;;;11.48;92.09
19594;BME280;9944;48.240;16.478;2022-10-31T01:32:56;100358.19;;;11.51;92.20
19594;BME280;9944;48.240;16.478;2022-10-31T01:37:00;100361.72;;;11.53;91.93
19594;BME280;9944;48.240;16.478;2022-10-31T01:41:04;100364.38;;;11.54;92.22
19594;BME280;9944;48.240;16.478;2022-10-31T01:45:10;100352.88;;;11.54;91.99
19594;BME280;9944;48.240;16.478;2022-10-31T01:49:16;100352.91;;;11.55;92.13
19594;BME280;9944;48.240;16.478;2022-10-31T01:53:20;100357.31;;;11.56;91.70
19594;BME280;9944;48.240;16.478;2022-10-31T01:57:28;100358.19;;;11.55;91.49
19594;BME280;9944;48.240;16.478;2022-10-31T02:01:33;100357.31;;;11.53;91.72
19594;BME280;9944;48.240;16.478;2022-10-31T02:05:37;100352.00;;;11.53;91.80
19594;BME280;9944;48.240;16.478;2022-10-31T02:09:42;100351.16;;;11.56;91.72
19594;BME280;9944;48.240;16.478;2022-10-31T02:13:46;100351.16;;;11.58;91.85
19594;BME280;9944;48.240;16.478;2022-10-31T02:17:51;100354.69;;;11.61;91.98
19594;BME280;9944;48.240;16.478;2022-10-31T02:22:00;100350.28;;;11.62;91.62
19594;BME280;9944;48.240;16.478;2022-10-31T02:26:22;100347.63;;;11.63;91.96
19594;BME280;9944;48.240;16.478;2022-10-31T02:30:35;100344.97;;;11.62;91.30
19594;BME280;9944;48.240;16.478;2022-10-31T02:34:51;100344.09;;;11.58;91.39
19594;BME280;9944;48.240;16.478;2022-10-31T02:39:02;100343.22;;;11.58;91.39
19594;BME280;9944;48.240;16.478;2022-10-31T02:43:20;100350.25;;;11.55;91.24
19594;BME280;9944;48.240;16.478;2022-10-31T02:47:29;100348.50;;;11.54;91.17
19594;BME280;9944;48.240;16.478;2022-10-31T02:51:37;100344.97;;;11.52;91.44
19594;BME280;9944;48.240;16.478;2022-10-31T02:55:59;100340.56;;;11.48;91.29
19594;BME280;9944;48.240;16.478;2022-10-31T03:00:06;100350.25;;;11.46;91.08
19594;BME280;9944;48.240;16.478;2022-10-31T03:04:28;100352.03;;;11.47;91.29
19594;BME280;9944;48.240;16.478;2022-10-31T03:08:41;100341.44;;;11.44;91.13
19594;BME280;9944;48.240;16.478;2022-10-31T03:12:56;100346.72;;;11.44;91.38
19594;BME280;9944;48.240;16.478;2022-10-31T03:17:05;100346.72;;;11.44;91.60
19594;BME280;9944;48.240;16.478;2022-10-31T03:21:13;100354.66;;;11.47;91.98
19594;BME280;9944;48.240;16.478;2022-10-31T03:25:19;100352.03;;;11.47;92.05
19594;BME280;9944;48.240;16.478;2022-10-31T03:29:26;100351.13;;;11.50;91.98
19594;BME280;9944;48.240;16.478;2022-10-31T03:33:33;100362.59;;;11.50;91.86
19594;BME280;9944;48.240;16.478;2022-10-31T03:37:38;100359.06;;;11.51;91.83
19594;BME280;9944;48.240;16.478;2022-10-31T03:41:54;100363.47;;;11.54;91.66
19594;BME280;9944;48.240;16.478;2022-10-31T03:46:00;100353.78;;;11.53;91.57
19594;BME280;9944;48.240;16.478;2022-10-31T03:50:04;100349.38;;;11.52;91.38
19594;BME280;9944;48.240;16.478;2022-10-31T03:54:11;100356.41;;;11.50;91.41
19594;BME280;9944;48.240;16.478;2022-10-31T03:58:21;100358.19;;;11.51;91.53
19594;BME280;9944;48.240;16.478;2022-10-31T04:02:30;100359.94;;;11.53;91.67
19594;BME280;9944;48.240;16.478;2022-10-31T04:06:36;100353.81;;;11.58;91.65
19594;BME280;9944;48.240;16.478;2022-10-31T04:10:43;100363.50;;;11.60;91.58
19594;BME280;9944;48.240;16.478;2022-10-31T04:14:52;100368.78;;;11.62;91.33
19594;BME280;9944;48.240;16.478;2022-10-31T04:18:57;100366.13;;;11.60;91.38
19594;BME280;9944;48.240;16.478;2022-10-31T04:23:00;100372.31;;;11.54;90.97
19594;BME280;9944;48.240;16.478;2022-10-31T04:27:06;100378.47;;;11.47;91.15
19594;BME280;9944;48.240;16.478;2022-10-31T04:31:11;100379.34;;;11.49;91.53
19594;BME280;9944;48.240;16.478;2022-10-31T04:35:16;100371.44;;;11.52;91.51
19594;BME280;9944;48.240;16.478;2022-10-31T04:39:20;100378.47;;;11.55;91.66
19594;BME280;9944;48.240;16.478;2022-10-31T04:43:59;100376.69;;;11.55;91.50
19594;BME280;9944;48.240;16.478;2022-10-31T04:48:04;100374.91;;;11.48;91.08
19594;BME280;9944;48.240;16.478;2022-10-31T04:52:09;100381.97;;;11.46;91.43
19594;BME280;9944;48.240;16.478;2022-10-31T04:56:12;100378.44;;;11.44;91.17
19594;BME280;9944;48.240;16.478;2022-10-31T05:00:20;100378.41;;;11.38;91.01
19594;BME280;9944;48.240;16.478;2022-10-31T05:04:26;100384.59;;;11.37;91.53
19594;BME280;9944;48.240;16.478;2022-10-31T05:08:29;100385.47;;;11.37;91.54
19594;BME280;9944;48.240;16.478;2022-10-31T05:12:33;100382.84;;;11.37;91.76
19594;BME280;9944;48.240;16.478;2022-10-31T05:16:36;100389.88;;;11.43;91.84
19594;BME280;9944;48.240;16.478;2022-10-31T05:21:04;100384.59;;;11.45;91.79
19594;BME280;9944;48.240;16.478;2022-10-31T05:25:16;100382.88;;;11.44;91.49
19594;BME280;9944;48.240;16.478;2022-10-31T05:29:19;100381.09;;;11.44;91.34
19594;BME280;9944;48.240;16.478;2022-10-31T05:33:22;100387.25;;;11.46;91.46
19594;BME280;9944;48.240;16.478;2022-10-31T05:38:02;100388.16;;;11.51;91.57
19594;BME280;9944;48.240;16.478;2022-10-31T05:42:06;100390.78;;;11.51;91.24
19594;BME280;9944;48.240;16.478;2022-10-31T05:46:09;100389.03;;;11.50;91.30
19594;BME280;9944;48.240;16.478;2022-10-31T05:50:31;100387.28;;;11.49;90.98
19594;BME280;9944;48.240;16.478;2022-10-31T05:54:44;100395.19;;;11.46;91.08
19594;BME280;9944;48.240;16.478;2022-10-31T05:58:47;100396.97;;;11.46;91.12
19594;BME280;9944;48.240;16.478;2022-10-31T06:02:57;100408.38;;;11.40;90.99
19594;BME280;9944;48.240;16.478;2022-10-31T06:07:15;100399.56;;;11.38;91.09
19594;BME280;9944;48.240;16.478;2022-10-31T06:11:20;100410.16;;;11.35;91.06
19594;BME280;9944;48.240;16.478;2022-10-31T06:15:38;100418.09;;;11.35;90.98
19594;BME280;9944;48.240;16.478;2022-10-31T06:19:42;100417.19;;;11.36;91.41
19594;BME280;9944;48.240;16.478;2022-10-31T06:23:50;100424.25;;;11.35;91.22
19594;BME280;9944;48.240;16.478;2022-10-31T06:28:33;100423.31;;;11.30;90.94
19594;BME280;9944;48.240;16.478;2022-10-31T06:32:51;100429.47;;;11.31;91.26
19594;BME280;9944;48.240;16.478;2022-10-31T06:36:54;100426.84;;;11.25;90.54
19594;BME280;9944;48.240;16.478;2022-10-31T06:41:02;100425.91;;;11.23;91.09
19594;BME280;9944;48.240;16.478;2022-10-31T06:45:23;100431.22;;;11.26;91.05
19594;BME280;9944;48.240;16.478;2022-10-31T06:49:55;100430.31;;;11.22;90.82
19594;BME280;9944;48.240;16.478;2022-10-31T06:54:00;100432.09;;;11.23;90.95
19594;BME280;9944;48.240;16.478;2022-10-31T06:58:03;100428.59;;;11.21;91.06
19594;BME280;9944;48.240;16.478;2022-10-31T07:02:09;100440.03;;;11.25;91.33
19594;BME280;9944;48.240;16.478;2022-10-31T07:06:16;100442.69;;;11.26;91.27
19594;BME280;9944;48.240;16.478;2022-10-31T07:10:20;100445.31;;;11.28;91.42
19594;BME280;9944;48.240;16.478;2022-10-31T07:14:29;100440.94;;;11.27;90.99
19594;BME280;9944;48.240;16.478;2022-10-31T07:18:34;100451.50;;;11.27;90.85
19594;BME280;9944;48.240;16.478;2022-10-31T07:22:38;100448.81;;;11.22;91.19
19594;BME280;9944;48.240;16.478;2022-10-31T07:26:43;100443.53;;;11.21;90.89
19594;BME280;9944;48.240;16.478;2022-10-31T07:30:49;100443.59;;;11.30;91.60
19594;BME280;9944;48.240;16.478;2022-10-31T07:34:55;100446.25;;;11.33;91.34
19594;BME280;9944;48.240;16.478;2022-10-31T07:39:07;100454.19;;;11.34;91.35
19594;BME280;9944;48.240;16.478;2022-10-31T07:43:11;100455.09;;;11.40;91.55
19594;BME280;9944;48.240;16.478;2022-10-31T07:47:38;100455.97;;;11.43;91.48
19594;BME280;9944;48.240;16.478;2022-10-31T07:52:01;100464.78;;;11.45;91.34
19594;BME280;9944;48.240;16.478;2022-10-31T07:56:23;100459.50;;;11.45;91.30
19594;BME280;9944;48.240;16.478;2022-10-31T08:00:27;100468.34;;;11.44;91.24
19594;BME280;9944;48.240;16.478;2022-10-31T08:04:31;100458.63;;;11.42;90.90
19594;BME280;9944;48.240;16.478;2022-10-31T08:08:55;100459.50;;;11.45;91.51
19594;BME280;9944;48.240;16.478;2022-10-31T08:12:59;100457.75;;;11.50;91.50
19594;BME280;9944;48.240;16.478;2022-10-31T08:17:04;100457.75;;;11.50;91.38
19594;BME280;9944;48.240;16.478;2022-10-31T08:21:19;100451.59;;;11.48;90.91
19594;BME280;9944;48.240;16.478;2022-10-31T08:25:30;100454.25;;;11.51;91.28
19594;BME280;9944;48.240;16.478;2022-10-31T08:29:39;100463.06;;;11.53;90.89
19594;BME280;9944;48.240;16.478;2022-10-31T08:33:43;100452.50;;;11.56;91.32
19594;BME280;9944;48.240;16.478;2022-10-31T08:37:53;100461.31;;;11.55;91.02
19594;BME280;9944;48.240;16.478;2022-10-31T08:42:01;100448.09;;;11.57;90.94
19594;BME280;9944;48.240;16.478;2022-10-31T08:46:06;100452.50;;;11.56;91.03
19594;BME280;9944;48.240;16.478;2022-10-31T08:50:11;100451.63;;;11.61;91.42
19594;BME280;9944;48.240;16.478;2022-10-31T08:54:20;100445.47;;;11.62;91.50
19594;BME280;9944;48.240;16.478;2022-10-31T08:58:25;100443.72;;;11.64;91.12
19594;BME280;9944;48.240;16.478;2022-10-31T09:02:33;100454.28;;;11.64;90.92
19594;BME280;9944;48.240;16.478;2022-10-31T09:06:36;100454.28;;;11.65;91.21
19594;BME280;9944;48.240;16.478;2022-10-31T09:10:57;100453.41;;;11.65;91.03
19594;BME280;9944;48.240;16.478;2022-10-31T09:15:42;100453.41;;;11.65;90.62
19594;BME280;9944;48.240;16.478;2022-10-31T09:19:55;100449.88;;;11.61;90.71
19594;BME280;9944;48.240;16.478;2022-10-31T09:24:05;100459.59;;;11.65;91.29
19594;BME280;9944;48.240;16.478;2022-10-31T09:28:10;100464.88;;;11.67;91.19
19594;BME280;9944;48.240;16.478;2022-10-31T09:32:16;100449.03;;;11.70;91.28
19594;BME280;9944;48.240;16.478;2022-10-31T09:36:20;100456.94;;;11.74;91.24
19594;BME280;9944;48.240;16.478;2022-10-31T09:40:27;100453.44;;;11.77;91.20
19594;BME280;9944;48.240;16.478;2022-10-31T09:44:43;100456.09;;;11.83;91.17
19594;BME280;9944;48.240;16.478;2022-10-31T09:49:22;100451.69;;;11.87;91.30
19594;BME280;9944;48.240;16.478;2022-10-31T09:53:31;100458.75;;;11.89;91.13
19594;BME280;9944;48.240;16.478;2022-10-31T09:57:37;100451.69;;;11.88;90.92
19594;BME280;9944;48.240;16.478;2022-10-31T10:01:45;100447.28;;;11.86;90.52
19594;BME280;9944;48.240;16.478;2022-10-31T10:05:59;100451.69;;;11.87;90.79
19594;BME280;9944;48.240;16.478;2022-10-31T10:10:29;100450.81;;;11.86;90.81
19594;BME280;9944;48.240;16.478;2022-10-31T10:15:04;100444.63;;;11.86;90.63
19594;BME280;9944;48.240;16.478;2022-10-31T10:19:25;100448.16;;;11.85;90.94
19594;BME280;9944;48.240;16.478;2022-10-31T10:23:43;100446.41;;;11.85;90.54
19594;BME280;9944;48.240;16.478;2022-10-31T10:27:59;100449.91;;;11.80;90.43
19594;BME280;9944;48.240;16.478;2022-10-31T10:32:09;100441.97;;;11.81;90.83
19594;BME280;9944;48.240;16.478;2022-10-31T10:36:16;100443.75;;;11.82;90.91
19594;BME280;9944;48.240;16.478;2022-10-31T10:40:24;100439.34;;;11.81;90.67
19594;BME280;9944;48.240;16.478;2022-10-31T10:44:27;100433.16;;;11.79;90.89
19594;BME280;9944;48.240;16.478;2022-10-31T10:48:51;100427.00;;;11.85;91.25
19594;BME280;9944;48.240;16.478;2022-10-31T10:53:03;100426.09;;;11.90;91.34
19594;BME280;9944;48.240;16.478;2022-10-31T10:57:28;100421.69;;;11.96;90.88
19594;BME280;9944;48.240;16.478;2022-10-31T11:01:33;100426.13;;;11.93;90.72
19594;BME280;9944;48.240;16.478;2022-10-31T11:05:39;100424.34;;;11.96;90.79
19594;BME280;9944;48.240;16.478;2022-10-31T11:09:44;100420.84;;;12.00;90.80
19594;BME280;9944;48.240;16.478;2022-10-31T11:13:54;100417.28;;;12.02;90.81
19594;BME280;9944;48.240;16.478;2022-10-31T11:17:58;100416.44;;;12.02;90.62
19594;BME280;9944;48.240;16.478;2022-10-31T11:22:06;100406.72;;;12.07;90.76
19594;BME280;9944;48.240;16.478;2022-10-31T11:26:19;100412.03;;;12.10;90.56
19594;BME280;9944;48.240;16.478;2022-10-31T11:30:23;100409.38;;;12.13;90.68
19594;BME280;9944;48.240;16.478;2022-10-31T11:34:30;100408.50;;;12.08;90.33
19594;BME280;9944;48.240;16.478;2022-10-31T11:38:40;100409.38;;;11.99;90.00
19594;BME280;9944;48.240;16.478;2022-10-31T11:42:43;100404.09;;;11.99;90.22
19594;BME280;9944;48.240;16.478;2022-10-31T11:46:51;100396.16;;;11.98;90.12
19594;BME280;9944;48.240;16.478;2022-10-31T11:50:56;100392.59;;;12.00;90.52
19594;BME280;9944;48.240;16.478;2022-10-31T11:55:02;100395.25;;;12.02;90.11
19594;BME280;9944;48.240;16.478;2022-10-31T11:59:21;100384.66;;;12.02;90.38
19594;BME280;9944;48.240;16.478;2022-10-31T12:03:44;100381.16;;;12.03;90.38
19594;BME280;9944;48.240;16.478;2022-10-31T12:07:51;100382.03;;;12.02;89.89
19594;BME280;9944;48.240;16.478;2022-10-31T12:12:39;100374.97;;;11.98;89.64
19594;BME280;9944;48.240;16.478;2022-10-31T12:16:51;100372.34;;;11.99;89.85
19594;BME280;9944;48.240;16.478;2022-10-31T12:21:08;100376.72;;;12.02;90.08
19594;BME280;9944;48.240;16.478;2022-10-31T12:25:26;100374.97;;;12.04;90.05
19594;BME280;9944;48.240;16.478;2022-10-31T12:29:43;100378.50;;;12.09;90.03
19594;BME280;9944;48.240;16.478;2022-10-31T12:33:56;100371.44;;;12.11;89.59
19594;BME280;9944;48.240;16.478;2022-10-31T12:38:18;100370.56;;;12.10;89.67
19594;BME280;9944;48.240;16.478;2022-10-31T12:42:36;100377.63;;;12.10;89.59
19594;BME280;9944;48.240;16.478;2022-10-31T12:46:55;100367.03;;;12.04;89.34
19594;BME280;9944;48.240;16.478;2022-10-31T12:51:08;100362.63;;;12.01;89.69
19594;BME280;9944;48.240;16.478;2022-10-31T12:55:25;100357.34;;;11.98;89.79
19594;BME280;9944;48.240;16.478;2022-10-31T12:59:36;100355.56;;;11.99;89.80
19594;BME280;9944;48.240;16.478;2022-10-31T13:03:45;100362.63;;;12.00;90.06
19594;BME280;9944;48.240;16.478;2022-10-31T13:07:53;100364.38;;;12.01;90.25
19594;BME280;9944;48.240;16.478;2022-10-31T13:12:02;100359.09;;;12.04;90.20
19594;BME280;9944;48.240;16.478;2022-10-31T13:16:12;100352.03;;;12.04;89.98
19594;BME280;9944;48.240;16.478;2022-10-31T13:20:21;100349.38;;;12.07;89.91
19594;BME280;9944;48.240;16.478;2022-10-31T13:24:30;100353.81;;;12.13;90.11
19594;BME280;9944;48.240;16.478;2022-10-31T13:28:41;100346.75;;;12.15;90.11
19594;BME280;9944;48.240;16.478;2022-10-31T13:32:49;100341.41;;;12.20;90.30
19594;BME280;9944;48.240;16.478;2022-10-31T13:37:03;100349.34;;;12.20;89.82
19594;BME280;9944;48.240;16.478;2022-10-31T13:41:17;100337.03;;;12.22;89.69
19594;BME280;9944;48.240;16.478;2022-10-31T13:45:26;100325.53;;;12.21;90.03
19594;BME280;9944;48.240;16.478;2022-10-31T13:49:38;100325.53;;;12.18;89.64
19594;BME280;9944;48.240;16.478;2022-10-31T13:53:44;100326.44;;;12.14;89.38
19594;BME280;9944;48.240;16.478;2022-10-31T13:57:48;100325.56;;;12.09;89.43
19594;BME280;9944;48.240;16.478;2022-10-31T14:01:57;100322.03;;;12.01;89.33
19594;BME280;9944;48.240;16.478;2022-10-31T14:06:02;100323.81;;;11.99;89.35
19594;BME280;9944;48.240;16.478;2022-10-31T14:10:20;100325.56;;;11.93;89.43
19594;BME280;9944;48.240;16.478;2022-10-31T14:14:30;100322.06;;;11.91;89.87
19594;BME280;9944;48.240;16.478;2022-10-31T14:18:38;100314.13;;;11.90;89.96
19594;BME280;9944;48.240;16.478;2022-10-31T14:22:42;100308.81;;;11.90;90.12
19594;BME280;9944;48.240;16.478;2022-10-31T14:26:52;100314.97;;;11.90;90.38
19594;BME280;9944;48.240;16.478;2022-10-31T14:30:57;100307.06;;;11.89;90.20
19594;BME280;9944;48.240;16.478;2022-10-31T14:35:03;100297.38;;;11.92;90.63
19594;BME280;9944;48.240;16.478;2022-10-31T14:39:11;100295.56;;;12.01;91.02
19594;BME280;9944;48.240;16.478;2022-10-31T14:43:45;100299.09;;;12.10;91.06
19594;BME280;9944;48.240;16.478;2022-10-31T14:47:59;100301.75;;;12.10;90.43
19594;BME280;9944;48.240;16.478;2022-10-31T14:52:12;100297.34;;;12.08;90.23
19594;BME280;9944;48.240;16.478;2022-10-31T14:56:20;100296.44;;;12.06;90.12
19594;BME280;9944;48.240;16.478;2022-10-31T15:00:24;100300.88;;;12.07;90.21
19594;BME280;9944;48.240;16.478;2022-10-31T15:04:28;100292.94;;;12.04;90.04
19594;BME280;9944;48.240;16.478;2022-10-31T15:08:39;100295.56;;;12.04;90.01
19594;BME280;9944;48.240;16.478;2022-10-31T15:12:43;100294.69;;;12.00;90.13
19594;BME280;9944;48.240;16.478;2022-10-31T15:16:46;100293.81;;;11.97;89.50
19594;BME280;9944;48.240;16.478;2022-10-31T15:20:50;100294.72;;;11.89;89.49
19594;BME280;9944;48.240;16.478;2022-10-31T15:24:55;100291.19;;;11.84;89.62
19594;BME280;9944;48.240;16.478;2022-10-31T15:29:00;100291.19;;;11.84;90.02
19594;BME280;9944;48.240;16.478;2022-10-31T15:33:18;100289.44;;;11.83;90.02
19594;BME280;9944;48.240;16.478;2022-10-31T15:37:24;100284.13;;;11.83;89.82
19594;BME280;9944;48.240;16.478;2022-10-31T15:41:31;100279.75;;;11.85;90.00
19594;BME280;9944;48.240;16.478;2022-10-31T15:45:35;100285.91;;;11.86;90.14
19594;BME280;9944;48.240;16.478;2022-10-31T15:49:40;100283.25;;;11.84;90.09
19594;BME280;9944;48.240;16.478;2022-10-31T15:53:47;100281.50;;;11.79;89.98
19594;BME280;9944;48.240;16.478;2022-10-31T15:57:55;100278.88;;;11.77;90.17
19594;BME280;9944;48.240;16.478;2022-10-31T16:02:01;100294.72;;;11.75;90.01
19594;BME280;9944;48.240;16.478;2022-10-31T16:06:05;100282.41;;;11.70;90.17
19594;BME280;9944;48.240;16.478;2022-10-31T16:10:22;100295.63;;;11.70;90.19
19594;BME280;9944;48.240;16.478;2022-10-31T16:14:30;100300.91;;;11.67;90.87
19594;BME280;9944;48.240;16.478;2022-10-31T16:18:40;100304.44;;;11.69;90.64
19594;BME280;9944;48.240;16.478;2022-10-31T16:22:48;100295.63;;;11.70;90.66
19594;BME280;9944;48.240;16.478;2022-10-31T16:26:57;100300.03;;;11.77;91.20
19594;BME280;9944;48.240;16.478;2022-10-31T16:31:12;100300.91;;;11.78;90.79
19594;BME280;9944;48.240;16.478;2022-10-31T16:35:21;100306.19;;;11.82;91.00
19594;BME280;9944;48.240;16.478;2022-10-31T16:39:26;100299.13;;;11.81;90.95
19594;BME280;9944;48.240;16.478;2022-10-31T16:43:29;100297.34;;;11.83;91.34
19594;BME280;9944;48.240;16.478;2022-10-31T16:47:34;100296.47;;;11.81;91.19
19594;BME280;9944;48.240;16.478;2022-10-31T16:51:37;100300.91;;;11.78;90.72
19594;BME280;9944;48.240;16.478;2022-10-31T16:55:43;100304.41;;;11.66;90.71
19594;BME280;9944;48.240;16.478;2022-10-31T16:59:51;100304.44;;;11.63;90.97
19594;BME280;9944;48.240;16.478;2022-10-31T17:03:56;100303.53;;;11.64;90.98
19594;BME280;9944;48.240;16.478;2022-10-31T17:07:59;100311.50;;;11.67;91.44
19594;BME280;9944;48.240;16.478;2022-10-31T17:12:17;100312.38;;;11.70;91.52
19594;BME280;9944;48.240;16.478;2022-10-31T17:16:26;100315.88;;;11.74;91.32
19594;BME280;9944;48.240;16.478;2022-10-31T17:20:58;100315.91;;;11.75;91.12
19594;BME280;9944;48.240;16.478;2022-10-31T17:25:37;100316.78;;;11.67;90.96
19594;BME280;9944;48.240;16.478;2022-10-31T17:29:52;100301.78;;;11.60;90.82
19594;BME280;9944;48.240;16.478;2022-10-31T17:34:05;100309.72;;;11.53;90.71
19594;BME280;9944;48.240;16.478;2022-10-31T17:38:27;100304.41;;;11.50;90.57
19594;BME280;9944;48.240;16.478;2022-10-31T17:42:49;100302.66;;;11.49;90.98
19594;BME280;9944;48.240;16.478;2022-10-31T17:46:52;100303.53;;;11.47;90.88
19594;BME280;9944;48.240;16.478;2022-10-31T17:50:58;100304.44;;;11.47;90.78
19594;BME280;9944;48.240;16.478;2022-10-31T17:55:04;100303.53;;;11.47;90.79
19594;BME280;9944;48.240;16.478;2022-10-31T17:59:07;100307.97;;;11.51;91.52
19594;BME280;9944;48.240;16.478;2022-10-31T18:03:10;100307.94;;;11.55;91.27
19594;BME280;9944;48.240;16.478;2022-10-31T18:07:13;100307.94;;;11.55;91.60
19594;BME280;9944;48.240;16.478;2022-10-31T18:11:21;100310.59;;;11.55;91.29
19594;BME280;9944;48.240;16.478;2022-10-31T18:15:24;100301.78;;;11.50;91.33
19594;BME280;9944;48.240;16.478;2022-10-31T18:19:27;100297.38;;;11.49;91.13
19594;BME280;9944;48.240;16.478;2022-10-31T18:23:30;100300.91;;;11.48;91.21
19594;BME280;9944;48.240;16.478;2022-10-31T18:27:34;100303.53;;;11.47;91.34
19594;BME280;9944;48.240;16.478;2022-10-31T18:31:38;100296.50;;;11.46;91.26
19594;BME280;9944;48.240;16.478;2022-10-31T18:35:41;100293.84;;;11.44;91.21
19594;BME280;9944;48.240;16.478;2022-10-31T18:39:44;100285.91;;;11.43;91.54
19594;BME280;9944;48.240;16.478;2022-10-31T18:43:48;100288.53;;;11.38;91.24
19594;BME280;9944;48.240;16.478;2022-10-31T18:47:52;100286.78;;;11.34;91.12
19594;BME280;9944;48.240;16.478;2022-10-31T18:51:55;100292.94;;;11.30;91.05
19594;BME280;9944;48.240;16.478;2022-10-31T18:55:59;100285.88;;;11.30;91.42
19594;BME280;9944;48.240;16.478;2022-10-31T19:00:05;100278.00;;;11.32;91.64
19594;BME280;9944;48.240;16.478;2022-10-31T19:04:09;100278.00;;;11.32;91.83
19594;BME280;9944;48.240;16.478;2022-10-31T19:08:12;100281.50;;;11.37;91.94
19594;BME280;9944;48.240;16.478;2022-10-31T19:12:16;100273.59;;;11.37;91.54
19594;BME280;9944;48.240;16.478;2022-10-31T19:16:21;100284.09;;;11.31;91.27
19594;BME280;9944;48.240;16.478;2022-10-31T19:20:24;100277.94;;;11.26;91.40
19594;BME280;9944;48.240;16.478;2022-10-31T19:24:28;100277.03;;;11.22;91.33
19594;BME280;9944;48.240;16.478;2022-10-31T19:28:32;100269.13;;;11.22;91.55
19594;BME280;9944;48.240;16.478;2022-10-31T19:32:37;100275.28;;;11.19;91.45
19594;BME280;9944;48.240;16.478;2022-10-31T19:36:40;100270.88;;;11.20;91.42
19594;BME280;9944;48.240;16.478;2022-10-31T19:40:44;100277.94;;;11.19;91.53
19594;BME280;9944;48.240;16.478;2022-10-31T19:44:47;100269.09;;;11.19;91.23
19594;BME280;9944;48.240;16.478;2022-10-31T19:48:51;100261.19;;;11.16;91.36
19594;BME280;9944;48.240;16.478;2022-10-31T19:52:54;100254.13;;;11.13;91.55
19594;BME280;9944;48.240;16.478;2022-10-31T19:56:57;100268.22;;;11.14;91.58
19594;BME280;9944;48.240;16.478;2022-10-31T20:01:05;100263.81;;;11.11;91.45
19594;BME280;9944;48.240;16.478;2022-10-31T20:05:10;100257.66;;;11.09;91.41
19594;BME280;9944;48.240;16.478;2022-10-31T20:09:14;100261.16;;;11.05;91.08
19594;BME280;9944;48.240;16.478;2022-10-31T20:13:17;100265.56;;;11.03;91.30
19594;BME280;9944;48.240;16.478;2022-10-31T20:17:20;100258.53;;;10.99;91.28
19594;BME280;9944;48.240;16.478;2022-10-31T20:21:26;100254.97;;;11.00;91.46
19594;BME280;9944;48.240;16.478;2022-10-31T20:25:30;100262.91;;;11.03;91.74
19594;BME280;9944;48.240;16.478;2022-10-31T20:29:34;100267.34;;;11.04;91.29
19594;BME280;9944;48.240;16.478;2022-10-31T20:33:37;100261.19;;;11.02;91.16
19594;BME280;9944;48.240;16.478;2022-10-31T20:37:42;100264.66;;;10.96;90.95
19594;BME280;9944;48.240;16.478;2022-10-31T20:41:45;100256.75;;;10.96;91.40
19594;BME280;9944;48.240;16.478;2022-10-31T20:45:49;100259.38;;;10.95;91.41
19594;BME280;9944;48.240;16.478;2022-10-31T20:49:52;100247.06;;;10.92;91.57
19594;BME280;9944;48.240;16.478;2022-10-31T20:53:58;100252.34;;;10.91;91.60
19594;BME280;9944;48.240;16.478;2022-10-31T20:58:01;100251.47;;;10.89;91.36
19594;BME280;9944;48.240;16.478;2022-10-31T21:02:04;100263.78;;;10.87;91.25
19594;BME280;9944;48.240;16.478;2022-10-31T21:06:08;100253.19;;;10.84;91.13
19594;BME280;9944;48.240;16.478;2022-10-31T21:10:13;100254.06;;;10.78;90.91
19594;BME280;9944;48.240;16.478;2022-10-31T21:14:16;100247.00;;;10.74;90.73
19594;BME280;9944;48.240;16.478;2022-10-31T21:18:20;100259.31;;;10.72;90.92
19594;BME280;9944;48.240;16.478;2022-10-31T21:22:23;100247.88;;;10.68;90.84
19594;BME280;9944;48.240;16.478;2022-10-31T21:26:30;100253.13;;;10.65;90.68
19594;BME280;9944;48.240;16.478;2022-10-31T21:30:38;100256.66;;;10.67;91.28
19594;BME280;9944;48.240;16.478;2022-10-31T21:34:42;100252.28;;;10.68;91.18
19594;BME280;9944;48.240;16.478;2022-10-31T21:38:48;100247.84;;;10.65;91.24
19594;BME280;9944;48.240;16.478;2022-10-31T21:42:54;100245.22;;;10.60;91.26